createdAt,value
2023-03-11T00:00:26.915Z,72.11
2023-03-11T00:02:56.055Z,72.21
2023-03-11T00:05:29.324Z,71.90
2023-03-11T00:07:57.134Z,71.52
2023-03-11T00:10:41.318Z,71.13
2023-03-11T00:13:10.464Z,71.10
2023-03-11T00:15:38.877Z,70.46
2023-03-11T00:18:07.003Z,69.58
2023-03-11T00:20:39.497Z,69.17
2023-03-11T00:23:08.662Z,69.39
2023-03-11T00:25:37.621Z,69.22
2023-03-11T00:28:07.566Z,68.68
2023-03-11T00:30:34.525Z,68.38
2023-03-11T00:33:01.527Z,69.06
2023-03-11T00:35:31.858Z,68.79
2023-03-11T00:38:01.724Z,68.59
2023-03-11T00:40:31.351Z,68.75
2023-03-11T00:42:59.511Z,69.27
2023-03-11T00:45:28.441Z,68.78
2023-03-11T00:47:56.153Z,68.73
2023-03-11T00:50:26.509Z,68.20
2023-03-11T00:52:53.513Z,68.41
2023-03-11T00:55:23.838Z,68.37
2023-03-11T00:58:00.274Z,68.02
2023-03-11T01:00:28.879Z,67.88
2023-03-11T01:02:56.680Z,67.79
2023-03-11T01:05:28.295Z,68.13
2023-03-11T01:07:55.244Z,69.19
2023-03-11T01:10:22.177Z,69.68
2023-03-11T01:12:49.321Z,70.03
2023-03-11T01:15:30.145Z,71.11
2023-03-11T01:17:57.155Z,71.15
2023-03-11T01:20:24.598Z,70.83
2023-03-11T01:22:51.646Z,70.76
2023-03-11T01:25:20.329Z,70.61
2023-03-11T01:27:47.368Z,70.98
2023-03-11T01:30:17.996Z,70.77
2023-03-11T01:32:45.281Z,70.85
2023-03-11T01:35:14.910Z,70.62
2023-03-11T01:37:41.905Z,70.94
2023-03-11T01:40:13.353Z,70.62
2023-03-11T01:42:40.395Z,70.49
2023-03-11T01:45:43.587Z,69.91
2023-03-11T01:48:11.890Z,69.52
2023-03-11T01:50:43.582Z,69.67
2023-03-11T01:53:13.354Z,70.00
2023-03-11T01:55:40.368Z,70.32
2023-03-11T01:58:11.299Z,71.10
2023-03-11T02:00:39.058Z,71.09
2023-03-11T02:03:17.732Z,71.88
2023-03-11T02:05:45.939Z,71.44
2023-03-11T02:08:12.689Z,71.68
2023-03-11T02:10:43.021Z,72.00
2023-03-11T02:13:10.976Z,72.44
2023-03-11T02:15:39.937Z,72.19
2023-03-11T02:18:08.477Z,71.83
2023-03-11T02:20:59.457Z,71.72
2023-03-11T02:23:37.035Z,71.64
2023-03-11T02:26:10.439Z,71.96
2023-03-11T02:28:39.233Z,72.21
2023-03-11T02:31:06.221Z,72.21
2023-03-11T02:33:36.841Z,72.69
2023-03-11T02:36:04.911Z,72.63
2023-03-11T02:38:31.924Z,73.10
2023-03-11T02:41:02.967Z,72.73
2023-03-11T02:43:41.480Z,73.06
2023-03-11T02:46:11.819Z,73.10
2023-03-11T02:48:39.457Z,73.08
2023-03-11T02:51:06.294Z,73.05
2023-03-11T02:53:38.163Z,72.74
2023-03-11T02:56:05.290Z,72.63
2023-03-11T02:58:32.127Z,72.34
2023-03-11T03:00:58.974Z,72.50
2023-03-11T03:03:25.806Z,72.56
2023-03-11T03:05:52.650Z,72.36
2023-03-11T03:08:19.487Z,72.43
2023-03-11T03:10:46.640Z,72.48
2023-03-11T03:13:13.693Z,72.76
2023-03-11T03:15:40.730Z,73.02
2023-03-11T03:18:07.665Z,74.42
2023-03-11T03:20:34.419Z,74.30
2023-03-11T03:23:01.661Z,74.73
2023-03-11T03:25:28.715Z,75.09
2023-03-11T03:27:55.550Z,75.51
2023-03-11T03:30:22.393Z,76.28
2023-03-11T03:32:49.302Z,76.76
2023-03-11T03:35:16.271Z,76.57
2023-03-11T03:37:43.112Z,76.83
2023-03-11T03:40:10.773Z,77.50
2023-03-11T03:42:38.486Z,78.01
2023-03-11T03:45:08.172Z,79.04
2023-03-11T03:47:36.012Z,78.62
2023-03-11T03:50:05.851Z,79.25
2023-03-11T03:52:32.610Z,79.50
2023-03-11T03:54:59.350Z,79.85
2023-03-11T03:57:26.023Z,79.93
2023-03-11T03:59:52.701Z,79.48
2023-03-11T04:02:19.547Z,79.98
2023-03-11T04:04:47.399Z,80.42
2023-03-11T04:07:14.109Z,80.22
2023-03-11T04:09:42.754Z,80.78
2023-03-11T04:12:15.456Z,81.38
2023-03-11T04:14:42.241Z,81.95
2023-03-11T04:17:11.841Z,82.82
2023-03-11T04:19:39.277Z,83.42
2023-03-11T04:22:06.310Z,84.65
2023-03-11T04:24:33.036Z,84.26
2023-03-11T04:27:00.121Z,84.19
2023-03-11T04:29:26.893Z,84.92
2023-03-11T04:31:53.706Z,83.95
2023-03-11T04:34:20.824Z,83.66
2023-03-11T04:36:47.650Z,83.07
2023-03-11T04:39:15.600Z,82.82
2023-03-11T04:41:42.377Z,82.05
2023-03-11T04:44:09.082Z,81.07
2023-03-11T04:46:35.958Z,80.76
2023-03-11T04:49:02.693Z,81.38
2023-03-11T04:51:29.497Z,81.77
2023-03-11T04:53:56.225Z,82.02
2023-03-11T04:56:23.291Z,81.70
2023-03-11T04:58:49.996Z,80.99
2023-03-11T05:01:16.740Z,80.79
2023-03-11T05:03:43.421Z,80.65
2023-03-11T05:06:10.759Z,79.91
2023-03-11T05:08:37.638Z,80.43
2023-03-11T05:11:05.083Z,80.26
2023-03-11T05:13:32.719Z,80.53
2023-03-11T05:16:00.149Z,80.06
2023-03-11T05:18:27.420Z,79.59
2023-03-11T05:20:54.887Z,79.18
2023-03-11T05:23:22.442Z,79.64
2023-03-11T05:25:49.176Z,79.83
2023-03-11T05:28:16.008Z,79.61
2023-03-11T05:30:42.646Z,79.44
2023-03-11T05:33:09.597Z,79.52
2023-03-11T05:35:36.777Z,79.93
2023-03-11T05:38:04.880Z,79.78
2023-03-11T05:40:41.416Z,79.41
2023-03-11T05:43:08.474Z,80.00
2023-03-11T05:45:35.467Z,79.68
2023-03-11T05:48:02.198Z,79.66
2023-03-11T05:50:29.048Z,79.12
2023-03-11T05:52:56.561Z,79.15
2023-03-11T05:55:23.519Z,79.63
2023-03-11T05:57:52.792Z,79.04
2023-03-11T06:00:20.726Z,78.80
2023-03-11T06:02:47.995Z,78.99
2023-03-11T06:05:15.095Z,79.35
2023-03-11T06:07:42.253Z,79.73
2023-03-11T06:10:10.393Z,80.30
2023-03-11T06:12:38.871Z,81.15
2023-03-11T06:15:09.358Z,82.32
2023-03-11T06:17:36.557Z,82.93
2023-03-11T06:20:05.221Z,83.30
2023-03-11T06:22:32.470Z,83.47
2023-03-11T06:24:59.353Z,84.50
2023-03-11T06:27:26.553Z,84.87
2023-03-11T06:29:54.966Z,85.85
2023-03-11T06:32:22.410Z,85.87
2023-03-11T06:34:53.452Z,86.31
2023-03-11T06:37:21.597Z,86.69
2023-03-11T06:39:52.797Z,87.39
2023-03-11T06:42:20.437Z,87.87
2023-03-11T06:44:59.202Z,87.93
2023-03-11T06:47:29.479Z,88.22
2023-03-11T06:50:01.273Z,88.45
2023-03-11T06:52:28.245Z,88.72
2023-03-11T06:54:55.284Z,88.66
2023-03-11T06:57:22.723Z,89.41
2023-03-11T06:59:50.082Z,89.35
2023-03-11T07:02:17.050Z,89.78
2023-03-11T07:04:44.124Z,90.09
2023-03-11T07:07:11.207Z,90.44
2023-03-11T07:09:38.505Z,90.38
2023-03-11T07:12:06.797Z,91.07
2023-03-11T07:14:34.453Z,90.95
2023-03-11T07:17:01.852Z,91.67
2023-03-11T07:19:28.973Z,91.71
2023-03-11T07:21:55.907Z,91.93
2023-03-11T07:24:22.885Z,91.54
2023-03-11T07:26:49.885Z,91.78
2023-03-11T07:29:17.170Z,91.51
2023-03-11T07:31:44.314Z,91.28
2023-03-11T07:34:14.072Z,91.22
2023-03-11T07:36:42.507Z,91.21
2023-03-11T07:39:14.893Z,91.05
2023-03-11T07:41:42.291Z,90.73
2023-03-11T07:44:12.908Z,91.05
2023-03-11T07:46:40.645Z,90.69
2023-03-11T07:49:08.184Z,91.17
2023-03-11T07:51:36.970Z,91.23
2023-03-11T07:54:07.863Z,91.52
2023-03-11T07:56:35.598Z,91.55
2023-03-11T07:59:04.497Z,91.14
2023-03-11T08:01:36.732Z,91.21
2023-03-11T08:04:06.978Z,91.68
2023-03-11T08:06:35.756Z,91.23
2023-03-11T08:09:06.227Z,91.40
2023-03-11T08:11:33.183Z,91.94
2023-03-11T08:14:00.474Z,92.02
2023-03-11T08:16:27.974Z,92.07
2023-03-11T08:18:55.743Z,92.28
2023-03-11T08:21:26.073Z,92.10
2023-03-11T08:23:58.538Z,92.00
2023-03-11T08:26:26.306Z,92.02
2023-03-11T08:28:53.340Z,91.97
2023-03-11T08:31:24.667Z,91.78
2023-03-11T08:33:54.781Z,91.69
2023-03-11T08:36:22.138Z,91.59
2023-03-11T08:38:49.368Z,91.97
2023-03-11T08:41:16.652Z,92.04
2023-03-11T08:43:44.773Z,92.07
2023-03-11T08:46:36.179Z,91.94
2023-03-11T08:49:03.499Z,91.91
2023-03-11T08:51:33.029Z,92.00
2023-03-11T08:54:01.099Z,92.14
2023-03-11T08:56:28.410Z,92.00
2023-03-11T08:58:55.816Z,92.21
2023-03-11T09:01:23.962Z,92.08
2023-03-11T09:03:51.803Z,92.05
2023-03-11T09:06:19.444Z,92.36
2023-03-11T09:08:47.732Z,92.34
2023-03-11T09:11:16.963Z,92.41
2023-03-11T09:13:44.567Z,92.63
2023-03-11T09:16:17.295Z,92.57
2023-03-11T09:18:45.712Z,92.27
2023-03-11T09:21:13.280Z,92.17
2023-03-11T09:23:43.954Z,92.67
2023-03-11T09:26:12.218Z,92.75
2023-03-11T09:28:39.917Z,92.75
2023-03-11T09:31:07.702Z,93.15
2023-03-11T09:33:40.234Z,93.37
2023-03-11T09:36:08.304Z,93.53
2023-03-11T09:38:35.199Z,93.71
2023-03-11T09:41:36.702Z,93.86
2023-03-11T09:44:18.384Z,93.81
2023-03-11T09:47:04.445Z,93.90
2023-03-11T09:50:16.973Z,93.78
2023-03-11T09:52:53.299Z,94.17
2023-03-11T09:55:49.575Z,94.37
2023-03-11T09:58:29.634Z,94.32
2023-03-11T10:00:57.142Z,94.39
2023-03-11T10:03:26.956Z,94.41
2023-03-11T10:06:01.496Z,94.23
2023-03-11T10:08:53.911Z,94.15
2023-03-11T10:11:45.264Z,94.20
2023-03-11T10:14:27.984Z,94.26
2023-03-11T10:17:16.937Z,94.13
2023-03-11T10:20:22.424Z,94.05
2023-03-11T10:23:08.777Z,93.80
2023-03-11T10:25:54.376Z,93.59
2023-03-11T10:28:25.033Z,93.45
2023-03-11T10:31:01.817Z,93.66
2023-03-11T10:34:18.872Z,93.45
2023-03-11T10:36:48.855Z,93.36
2023-03-11T10:39:16.101Z,93.19
2023-03-11T10:41:51.415Z,93.28
2023-03-11T10:44:34.560Z,93.25
2023-03-11T10:47:02.714Z,93.48
2023-03-11T10:49:30.616Z,93.48
2023-03-11T10:51:58.556Z,93.49
2023-03-11T10:54:35.558Z,93.41
2023-03-11T10:57:05.427Z,93.65
2023-03-11T10:59:48.034Z,93.69
2023-03-11T11:02:38.778Z,93.63
2023-03-11T11:05:14.924Z,93.77
2023-03-11T11:07:43.460Z,93.65
2023-03-11T11:10:14.137Z,93.56
2023-03-11T11:13:18.317Z,93.49
2023-03-11T11:15:51.502Z,93.46
2023-03-11T11:18:42.952Z,93.28
2023-03-11T11:21:33.601Z,93.41
2023-03-11T11:24:06.464Z,93.70
2023-03-11T11:26:33.490Z,93.63
2023-03-11T11:29:12.831Z,93.97
2023-03-11T11:31:46.155Z,94.02
2023-03-11T11:34:32.884Z,94.11
2023-03-11T11:37:03.746Z,94.11
2023-03-11T11:39:52.180Z,93.71
2023-03-11T11:42:20.783Z,93.73
2023-03-11T11:44:53.420Z,93.62
2023-03-11T11:47:33.421Z,93.56
2023-03-11T11:50:16.701Z,93.56
2023-03-11T11:52:49.211Z,93.80
2023-03-11T11:55:31.982Z,93.90
2023-03-11T11:57:59.055Z,93.99
2023-03-11T12:00:42.281Z,93.90
2023-03-11T12:03:27.185Z,93.93
2023-03-11T12:06:07.406Z,93.89
2023-03-11T12:08:43.415Z,93.76
2023-03-11T12:11:27.620Z,93.59
2023-03-11T12:14:04.936Z,93.82
2023-03-11T12:16:40.057Z,93.80
2023-03-11T12:19:10.544Z,93.73
2023-03-11T12:22:17.759Z,93.72
2023-03-11T12:25:11.985Z,93.59
2023-03-11T12:27:48.135Z,93.30
2023-03-11T12:30:20.297Z,92.66
2023-03-11T12:32:57.027Z,92.51
2023-03-11T12:35:32.686Z,91.98
2023-03-11T12:38:21.348Z,91.88
2023-03-11T12:40:49.507Z,91.50
2023-03-11T12:43:30.622Z,91.67
2023-03-11T12:46:01.658Z,91.50
2023-03-11T12:48:47.900Z,91.90
2023-03-11T12:51:27.183Z,91.82
2023-03-11T12:53:57.898Z,91.98
2023-03-11T12:56:37.077Z,91.59
2023-03-11T12:59:23.030Z,91.45
2023-03-11T13:02:12.140Z,91.45
2023-03-11T13:04:56.806Z,91.20
2023-03-11T13:07:23.632Z,91.35
2023-03-11T13:10:29.422Z,91.12
2023-03-11T13:12:57.876Z,90.58
2023-03-11T13:15:35.668Z,90.68
2023-03-11T13:18:07.997Z,90.62
2023-03-11T13:20:43.840Z,90.33
2023-03-11T13:23:40.868Z,90.23
2023-03-11T13:26:35.621Z,90.27
2023-03-11T13:29:45.367Z,90.63
2023-03-11T13:32:40.675Z,90.62
2023-03-11T13:35:48.710Z,90.94
2023-03-11T13:38:44.603Z,91.50
2023-03-11T13:41:20.641Z,92.32
2023-03-11T13:43:50.885Z,92.38
2023-03-11T13:46:31.271Z,92.72
2023-03-11T13:49:26.146Z,92.62
2023-03-11T13:51:57.278Z,92.43
2023-03-11T13:54:31.828Z,92.47
2023-03-11T13:57:01.689Z,92.04
2023-03-11T13:59:35.132Z,91.81
2023-03-11T14:02:17.327Z,91.69
2023-03-11T14:04:59.236Z,91.55
2023-03-11T14:07:34.404Z,91.07
2023-03-11T14:10:22.065Z,90.67
2023-03-11T14:12:49.591Z,90.74
2023-03-11T14:15:24.327Z,90.18
2023-03-11T14:17:52.955Z,90.52
2023-03-11T14:20:25.447Z,90.75
2023-03-11T14:22:55.271Z,90.86
2023-03-11T14:25:28.566Z,90.65
2023-03-11T14:28:02.239Z,90.49
2023-03-11T14:30:32.557Z,90.55
2023-03-11T14:33:06.020Z,89.84
2023-03-11T14:35:34.553Z,89.60
2023-03-11T14:38:01.849Z,89.52
2023-03-11T14:40:32.396Z,88.48
2023-03-11T14:43:06.582Z,88.38
2023-03-11T14:45:37.631Z,88.20
2023-03-11T14:48:04.763Z,88.80
2023-03-11T14:50:35.427Z,89.00
2023-03-11T14:53:09.349Z,89.37
2023-03-11T14:55:44.417Z,89.52
2023-03-11T14:58:24.173Z,89.36
2023-03-11T15:00:58.268Z,89.15
2023-03-11T15:03:31.958Z,88.82
2023-03-11T15:06:04.405Z,87.84
2023-03-11T15:08:45.115Z,87.87
2023-03-11T15:11:15.431Z,88.12
2023-03-11T15:13:44.783Z,88.08
2023-03-11T15:16:30.217Z,88.23
2023-03-11T15:19:00.779Z,88.28
2023-03-11T15:21:28.382Z,88.13
2023-03-11T15:24:07.337Z,88.01
2023-03-11T15:26:36.073Z,87.96
2023-03-11T15:29:13.438Z,88.01
2023-03-11T15:31:41.277Z,88.31
2023-03-11T15:34:17.214Z,88.56
2023-03-11T15:37:20.638Z,88.63
2023-03-11T15:39:51.444Z,89.32
2023-03-11T15:42:21.654Z,89.53
2023-03-11T15:45:16.008Z,89.74
2023-03-11T15:47:44.149Z,90.23
2023-03-11T15:50:40.088Z,90.60
2023-03-11T15:53:13.768Z,90.47
2023-03-11T15:55:40.630Z,90.64
2023-03-11T15:58:09.577Z,91.01
2023-03-11T16:00:37.602Z,91.03
2023-03-11T16:03:05.429Z,90.64
2023-03-11T16:05:32.306Z,90.34
2023-03-11T16:07:59.193Z,90.01
2023-03-11T16:10:28.998Z,89.63
2023-03-11T16:12:56.401Z,89.12
2023-03-11T16:15:29.658Z,88.74
2023-03-11T16:17:59.593Z,88.50
2023-03-11T16:20:29.738Z,88.29
2023-03-11T16:22:58.937Z,88.33
2023-03-11T16:25:46.864Z,88.15
2023-03-11T16:28:16.065Z,88.42
2023-03-11T16:30:43.994Z,88.37
2023-03-11T16:33:11.178Z,87.98
2023-03-11T16:35:38.401Z,87.89
2023-03-11T16:38:07.449Z,88.01
2023-03-11T16:40:35.189Z,87.84
2023-03-11T16:43:08.238Z,87.89
2023-03-11T16:45:35.676Z,87.80
2023-03-11T16:48:03.755Z,87.77
2023-03-11T16:50:30.788Z,87.74
2023-03-11T16:52:57.988Z,87.78
2023-03-11T16:55:27.423Z,87.87
2023-03-11T16:57:56.625Z,87.90
2023-03-11T17:00:27.283Z,87.63
2023-03-11T17:02:54.580Z,87.20
2023-03-11T17:05:22.278Z,86.93
2023-03-11T17:07:52.682Z,87.08
2023-03-11T17:10:19.527Z,86.60
2023-03-11T17:12:46.363Z,86.34
2023-03-11T17:15:13.426Z,86.32
2023-03-11T17:17:40.638Z,86.34
2023-03-11T17:20:09.252Z,86.10
2023-03-11T17:22:36.600Z,85.62
2023-03-11T17:25:04.470Z,85.16
2023-03-11T17:27:32.934Z,85.23
2023-03-11T17:30:04.866Z,84.96
2023-03-11T17:32:33.098Z,85.14
2023-03-11T17:35:00.463Z,85.05
2023-03-11T17:37:27.824Z,84.73
2023-03-11T17:39:55.137Z,84.71
2023-03-11T17:42:22.705Z,84.57
2023-03-11T17:44:55.109Z,84.63
2023-03-11T17:47:26.406Z,84.88
2023-03-11T17:49:54.161Z,85.14
2023-03-11T17:52:21.189Z,84.94
2023-03-11T17:54:48.056Z,84.56
2023-03-11T17:57:15.267Z,84.19
2023-03-11T17:59:42.222Z,84.12
2023-03-11T18:02:14.476Z,84.19
2023-03-11T18:04:43.698Z,83.61
2023-03-11T18:07:10.856Z,83.79
2023-03-11T18:09:38.565Z,83.98
2023-03-11T18:12:07.270Z,83.38
2023-03-11T18:14:34.238Z,83.60
2023-03-11T18:17:01.340Z,83.59
2023-03-11T18:19:28.375Z,83.35
2023-03-11T18:21:55.418Z,83.62
2023-03-11T18:24:22.542Z,83.81
2023-03-11T18:26:49.458Z,83.85
2023-03-11T18:29:16.777Z,83.61
2023-03-11T18:31:43.852Z,83.87
2023-03-11T18:34:14.089Z,84.19
2023-03-11T18:36:42.462Z,84.18
2023-03-11T18:39:14.125Z,84.58
2023-03-11T18:41:42.468Z,84.66
2023-03-11T18:44:09.935Z,84.55
2023-03-11T18:46:37.257Z,84.56
2023-03-11T18:49:04.852Z,84.46
2023-03-11T18:51:33.204Z,83.75
2023-03-11T18:54:01.113Z,83.55
2023-03-11T18:56:31.335Z,83.70
2023-03-11T18:58:59.694Z,83.34
2023-03-11T19:01:27.882Z,83.51
2023-03-11T19:03:57.448Z,83.40
2023-03-11T19:06:26.869Z,83.49
2023-03-11T19:08:54.469Z,83.53
2023-03-11T19:11:23.458Z,83.54
2023-03-11T19:13:51.272Z,83.86
2023-03-11T19:16:21.907Z,83.57
2023-03-11T19:18:48.954Z,83.83
2023-03-11T19:21:17.688Z,83.75
2023-03-11T19:23:45.683Z,83.50
2023-03-11T19:26:13.580Z,83.50
2023-03-11T19:28:40.514Z,83.85
2023-03-11T19:31:07.538Z,83.96
2023-03-11T19:33:34.911Z,83.88
2023-03-11T19:36:04.497Z,83.86
2023-03-11T19:38:32.147Z,83.98
2023-03-11T19:41:08.872Z,83.81
2023-03-11T19:43:36.577Z,83.52
2023-03-11T19:46:05.619Z,83.77
2023-03-11T19:48:32.792Z,83.53
2023-03-11T19:51:00.806Z,83.56
2023-03-11T19:53:28.684Z,83.49
2023-03-11T19:55:57.113Z,83.51
2023-03-11T19:58:29.929Z,83.65
2023-03-11T20:00:58.950Z,83.68
2023-03-11T20:03:27.343Z,83.75
2023-03-11T20:05:58.134Z,83.92
2023-03-11T20:08:26.153Z,83.72
2023-03-11T20:10:53.803Z,83.99
2023-03-11T20:13:22.479Z,83.96
2023-03-11T20:15:50.196Z,84.12
2023-03-11T20:18:18.410Z,84.01
2023-03-11T20:20:45.980Z,84.18
2023-03-11T20:23:24.962Z,84.17
2023-03-11T20:25:52.113Z,84.44
2023-03-11T20:28:19.495Z,84.57
2023-03-11T20:30:46.405Z,84.87
2023-03-11T20:33:13.588Z,84.79
2023-03-11T20:35:41.913Z,84.89
2023-03-11T20:38:10.542Z,85.41
2023-03-11T20:40:37.818Z,85.33
2023-03-11T20:43:04.948Z,85.41
2023-03-11T20:45:32.370Z,85.73
2023-03-11T20:47:59.701Z,86.02
2023-03-11T20:50:26.600Z,85.97
2023-03-11T20:52:53.502Z,86.33
2023-03-11T20:55:22.068Z,86.29
2023-03-11T20:57:48.946Z,86.04
2023-03-11T21:00:16.516Z,85.86
2023-03-11T21:02:43.928Z,85.85
2023-03-11T21:05:12.128Z,85.89
2023-03-11T21:07:40.782Z,86.09
2023-03-11T21:10:12.015Z,86.06
2023-03-11T21:12:38.889Z,86.32
2023-03-11T21:15:07.569Z,86.44
2023-03-11T21:17:35.687Z,86.28
2023-03-11T21:20:05.189Z,86.49
2023-03-11T21:22:33.125Z,86.66
2023-03-11T21:25:00.113Z,86.54
2023-03-11T21:27:27.255Z,86.56
2023-03-11T21:29:55.782Z,86.57
2023-03-11T21:32:24.176Z,86.80
2023-03-11T21:34:51.553Z,86.92
2023-03-11T21:37:18.751Z,86.75
2023-03-11T21:39:45.863Z,87.02
2023-03-11T21:42:13.575Z,86.84
2023-03-11T21:44:41.998Z,86.93
2023-03-11T21:47:10.098Z,87.03
2023-03-11T21:49:37.156Z,87.29
2023-03-11T21:52:04.715Z,87.21
2023-03-11T21:54:31.937Z,87.66
2023-03-11T21:56:58.880Z,87.37
2023-03-11T21:59:25.919Z,87.42
2023-03-11T22:01:53.449Z,87.63
2023-03-11T22:04:20.823Z,87.55
2023-03-11T22:06:48.200Z,87.44
2023-03-11T22:09:15.297Z,87.42
2023-03-11T22:11:42.558Z,87.50
2023-03-11T22:14:10.575Z,87.49
2023-03-11T22:16:38.081Z,87.58
2023-03-11T22:19:06.451Z,87.51
2023-03-11T22:21:33.587Z,87.47
2023-03-11T22:24:00.612Z,87.40
2023-03-11T22:26:27.734Z,87.04
2023-03-11T22:28:55.103Z,86.82
2023-03-11T22:31:22.160Z,86.84
2023-03-11T22:33:49.035Z,86.83
2023-03-11T22:36:15.986Z,86.94
2023-03-11T22:38:45.544Z,87.07
2023-03-11T22:41:14.502Z,87.20
2023-03-11T22:43:41.281Z,86.98
2023-03-11T22:46:08.275Z,86.95
2023-03-11T22:48:35.336Z,87.03
2023-03-11T22:51:02.481Z,87.10
2023-03-11T22:53:29.756Z,87.13
2023-03-11T22:55:56.626Z,87.28
2023-03-11T22:58:23.754Z,87.09
2023-03-11T23:00:51.262Z,87.17
2023-03-11T23:03:18.181Z,87.04
2023-03-11T23:05:46.842Z,86.94
2023-03-11T23:08:16.555Z,86.85
2023-03-11T23:10:45.993Z,86.77
2023-03-11T23:13:13.758Z,87.05
2023-03-11T23:15:43.189Z,86.80
2023-03-11T23:18:10.869Z,86.58
2023-03-11T23:20:40.231Z,86.44
2023-03-11T23:23:07.790Z,86.25
2023-03-11T23:25:35.857Z,86.15
2023-03-11T23:28:05.905Z,85.97
2023-03-11T23:30:33.310Z,85.69
2023-03-11T23:33:03.191Z,85.15
2023-03-11T23:35:31.676Z,85.03
2023-03-11T23:37:59.824Z,84.88
2023-03-11T23:40:27.873Z,84.62
2023-03-11T23:42:54.834Z,84.97
2023-03-11T23:45:21.855Z,85.02
2023-03-11T23:47:48.906Z,85.07
2023-03-11T23:50:16.313Z,85.00
2023-03-11T23:52:43.987Z,84.82
2023-03-11T23:55:11.585Z,85.09
2023-03-11T23:57:38.721Z,85.13
